createdAt,value
2017-05-24T00:00:09.033Z,19.3
2017-05-24T00:01:11.885Z,19.4
2017-05-24T00:02:14.736Z,19.3
2017-05-24T00:03:17.589Z,19.3
2017-05-24T00:04:19.931Z,19.3
2017-05-24T00:05:22.900Z,19.2
2017-05-24T00:06:25.752Z,19.3
2017-05-24T00:07:28.464Z,19.1
2017-05-24T00:08:31.180Z,19.1
2017-05-24T00:09:33.764Z,19.1
2017-05-24T00:10:37.233Z,19.1
2017-05-24T00:11:39.581Z,19.1
2017-05-24T00:12:42.446Z,19.1
2017-05-24T00:13:45.296Z,19.1
2017-05-24T00:14:48.009Z,19.1
2017-05-24T00:15:51.163Z,19.1
2017-05-24T00:16:53.506Z,19.1
2017-05-24T00:17:56.358Z,19.1
2017-05-24T00:18:59.630Z,19.1
2017-05-24T00:20:01.983Z,19.1
2017-05-24T00:21:05.084Z,19.1
2017-05-24T00:22:07.668Z,19.1
2017-05-24T00:23:10.521Z,19.2
2017-05-24T00:24:13.371Z,19.2
2017-05-24T00:25:16.084Z,19.1
2017-05-24T00:26:19.191Z,19.1
2017-05-24T00:27:21.533Z,19.1
2017-05-24T00:28:24.246Z,19
2017-05-24T00:29:26.824Z,19
2017-05-24T00:30:30.181Z,18.9
2017-05-24T00:31:33.340Z,18.8
2017-05-24T00:32:35.689Z,18.8
2017-05-24T00:33:38.553Z,18.8
2017-05-24T00:34:41.404Z,18.8
2017-05-24T00:35:44.266Z,18.7
2017-05-24T00:36:46.867Z,18.7
2017-05-24T00:37:49.719Z,18.8
2017-05-24T00:38:52.442Z,18.8
2017-05-24T00:40:58.066Z,18.8
2017-05-24T00:42:01.164Z,18.7
2017-05-24T00:43:03.375Z,18.7
2017-05-24T00:44:06.223Z,18.6
2017-05-24T00:45:09.070Z,18.5
2017-05-24T00:46:11.790Z,18.6
2017-05-24T00:47:14.891Z,18.5
2017-05-24T00:48:17.604Z,18.5
2017-05-24T00:49:20.181Z,18.5
2017-05-24T00:51:25.941Z,18.5
2017-05-24T00:52:29.046Z,18.5
2017-05-24T00:53:31.395Z,18.4
2017-05-24T00:54:34.250Z,18.5
2017-05-24T00:55:37.097Z,18.5
2017-05-24T00:56:39.952Z,18.5
2017-05-24T00:57:43.061Z,18.5
2017-05-24T00:58:45.413Z,18.5
2017-05-24T00:59:48.140Z,18.5
2017-05-24T01:01:53.902Z,18.5
2017-05-24T01:04:00.339Z,18.5
2017-05-24T01:05:02.183Z,18.6
2017-05-24T01:06:05.036Z,18.6
2017-05-24T01:07:07.618Z,18.5
2017-05-24T01:08:10.474Z,18.5
2017-05-24T01:09:13.575Z,18.5
2017-05-24T01:10:15.788Z,18.4
2017-05-24T01:11:18.506Z,18.3
2017-05-24T01:13:24.265Z,18.4
2017-05-24T01:14:27.236Z,18.3
2017-05-24T01:15:30.151Z,18.3
2017-05-24T01:17:35.271Z,18.3
2017-05-24T01:18:37.986Z,18.4
2017-05-24T01:19:41.089Z,18.4
2017-05-24T01:20:43.666Z,18.3
2017-05-24T01:21:46.386Z,18.3
2017-05-24T01:22:49.237Z,18.2
2017-05-24T01:23:51.957Z,18.1
2017-05-24T01:24:55.062Z,18.1
2017-05-24T01:25:57.409Z,18.1
2017-05-24T01:27:00.264Z,18.1
2017-05-24T01:28:03.111Z,18.2
2017-05-24T01:29:05.960Z,18.2
2017-05-24T01:30:09.490Z,18.2
2017-05-24T01:31:11.889Z,18.2
2017-05-24T01:32:14.234Z,18.2
2017-05-24T01:33:17.088Z,18.2
2017-05-24T01:34:19.803Z,18.1
2017-05-24T01:35:22.771Z,18.1
2017-05-24T01:36:25.483Z,18.1
2017-05-24T01:37:27.932Z,18.1
2017-05-24T01:38:30.785Z,18
2017-05-24T01:39:33.367Z,18
2017-05-24T01:40:36.474Z,18
2017-05-24T01:41:39.322Z,18
2017-05-24T01:43:44.954Z,17.9
2017-05-24T01:44:47.306Z,18
2017-05-24T01:45:50.406Z,18
2017-05-24T01:46:53.124Z,18
2017-05-24T01:47:55.975Z,18
2017-05-24T01:48:58.827Z,18
2017-05-24T01:50:01.550Z,18
2017-05-24T01:51:04.148Z,18
2017-05-24T01:52:06.866Z,18
2017-05-24T01:53:09.722Z,17.8
2017-05-24T01:54:12.576Z,17.8
2017-05-24T01:55:15.426Z,17.9
2017-05-24T01:56:17.904Z,17.9
2017-05-24T01:57:20.683Z,17.8
2017-05-24T01:58:23.538Z,17.8
2017-05-24T01:59:26.390Z,17.8
2017-05-24T02:00:29.107Z,17.8
2017-05-24T02:01:32.074Z,17.8
2017-05-24T02:02:34.419Z,17.8
2017-05-24T02:03:37.144Z,17.7
2017-05-24T02:04:39.860Z,17.6
2017-05-24T02:05:42.710Z,17.6
2017-05-24T02:06:45.810Z,17.5
2017-05-24T02:07:48.157Z,17.5
2017-05-24T02:08:51.567Z,17.4
2017-05-24T02:09:53.786Z,17.3
2017-05-24T02:10:56.506Z,17.3
2017-05-24T02:11:59.475Z,17.3
2017-05-24T02:13:02.188Z,17.3
2017-05-24T02:15:07.953Z,17.3
2017-05-24T02:16:11.229Z,17.3
2017-05-24T02:17:13.191Z,17.3
2017-05-24T02:18:16.040Z,17.3
2017-05-24T02:19:18.762Z,17.3
2017-05-24T02:20:21.610Z,17.2
2017-05-24T02:21:24.460Z,17.2
2017-05-24T02:22:26.922Z,17.2
2017-05-24T02:23:29.510Z,17.2
2017-05-24T02:24:32.369Z,17.2
2017-05-24T02:25:35.140Z,17.2
2017-05-24T02:26:37.855Z,17.2
2017-05-24T02:27:40.873Z,17.2
2017-05-24T02:28:43.593Z,17.3
2017-05-24T02:29:46.449Z,17.2
2017-05-24T02:30:48.663Z,17.2
2017-05-24T02:31:51.445Z,17.1
2017-05-24T02:32:54.556Z,17
2017-05-24T02:33:57.410Z,17.1
2017-05-24T02:35:00.259Z,17
2017-05-24T02:36:02.472Z,16.9
2017-05-24T02:37:05.323Z,17
2017-05-24T02:39:11.267Z,17
2017-05-24T02:40:13.613Z,17
2017-05-24T02:41:16.470Z,17.1
2017-05-24T02:42:19.321Z,17.1
2017-05-24T02:43:22.175Z,17
2017-05-24T02:44:25.281Z,17
2017-05-24T02:45:27.686Z,17.1
2017-05-24T02:46:30.399Z,17.1
2017-05-24T02:47:33.251Z,17.1
2017-05-24T02:48:35.603Z,17.1
2017-05-24T02:49:38.621Z,17.1
2017-05-24T02:50:41.466Z,17.1
2017-05-24T02:51:43.815Z,17.1
2017-05-24T02:52:46.668Z,17.1
2017-05-24T02:53:49.520Z,17.1
2017-05-24T02:54:52.628Z,17
2017-05-24T02:55:54.839Z,17
2017-05-24T02:56:57.683Z,17
2017-05-24T02:59:03.505Z,17
2017-05-24T03:00:06.017Z,17
2017-05-24T03:01:08.460Z,16.9
2017-05-24T03:02:11.305Z,16.7
2017-05-24T03:03:14.019Z,16.6
2017-05-24T03:04:16.598Z,16.6
2017-05-24T03:05:20.065Z,16.6
2017-05-24T03:06:22.413Z,16.6
2017-05-24T03:07:25.259Z,16.7
2017-05-24T03:08:27.975Z,16.7
2017-05-24T03:09:30.686Z,16.8
2017-05-24T03:10:33.783Z,16.8
2017-05-24T03:11:36.131Z,16.8
2017-05-24T03:12:38.976Z,16.8
2017-05-24T03:13:41.821Z,16.8
2017-05-24T03:14:44.268Z,16.8
2017-05-24T03:16:50.331Z,16.8
2017-05-24T03:17:52.675Z,16.7
2017-05-24T03:18:55.521Z,16.7
2017-05-24T03:19:58.231Z,16.8
2017-05-24T03:21:00.946Z,16.7
2017-05-24T03:22:04.043Z,16.7
2017-05-24T03:23:06.251Z,16.6
2017-05-24T03:24:08.961Z,16.6
2017-05-24T03:25:11.806Z,16.6
2017-05-24T03:26:14.655Z,16.6
2017-05-24T03:27:17.765Z,16.6
2017-05-24T03:28:20.167Z,16.6
2017-05-24T03:29:23.015Z,16.6
2017-05-24T03:30:25.860Z,16.6
2017-05-24T03:31:28.066Z,16.6
2017-05-24T03:32:31.534Z,16.6
2017-05-24T03:33:33.739Z,16.6
2017-05-24T03:34:36.585Z,16.5
2017-05-24T03:35:39.360Z,16.5
2017-05-24T03:36:42.206Z,16.5
2017-05-24T03:37:45.034Z,16.5
2017-05-24T03:38:47.751Z,16.5
2017-05-24T03:39:50.100Z,16.5
2017-05-24T03:40:52.952Z,16.5
2017-05-24T03:42:58.843Z,16.5
2017-05-24T03:44:01.057Z,16.5
2017-05-24T03:45:03.766Z,16.4
2017-05-24T03:46:06.476Z,16.3
2017-05-24T03:47:09.324Z,16.4
2017-05-24T03:48:12.288Z,16.4
2017-05-24T03:49:14.999Z,16.4
2017-05-24T03:50:18.389Z,16.2
2017-05-24T03:51:20.226Z,16.3
2017-05-24T03:52:22.940Z,16.2
2017-05-24T03:53:26.039Z,16.2
2017-05-24T03:54:28.484Z,16.3
2017-05-24T03:55:31.067Z,16.3
2017-05-24T03:56:33.911Z,16.3
2017-05-24T03:57:36.501Z,16.3
2017-05-24T03:58:40.106Z,16.3
2017-05-24T03:59:42.321Z,16.3
2017-05-24T04:00:45.168Z,16.3
2017-05-24T04:01:47.879Z,16.3
2017-05-24T04:02:50.586Z,16.1
2017-05-24T04:03:53.414Z,16.1
2017-05-24T04:04:56.270Z,16.1
2017-05-24T04:05:58.984Z,16.1
2017-05-24T04:07:01.701Z,16.1
2017-05-24T04:08:04.043Z,16.1
2017-05-24T04:09:07.143Z,16.1
2017-05-24T04:10:09.488Z,16.1
2017-05-24T04:11:12.337Z,16
2017-05-24T04:12:15.383Z,16
2017-05-24T04:13:17.593Z,16.1
2017-05-24T04:14:20.697Z,16
2017-05-24T04:15:23.542Z,16
2017-05-24T04:16:25.881Z,16.1
2017-05-24T04:17:28.729Z,16.1
2017-05-24T04:18:31.453Z,16.1
2017-05-24T04:19:34.553Z,16.2
2017-05-24T04:20:36.895Z,16.2
2017-05-24T04:21:39.743Z,16.3
2017-05-24T04:22:42.457Z,16.3
2017-05-24T04:23:45.307Z,16.3
2017-05-24T04:24:48.410Z,16.3
2017-05-24T04:25:50.618Z,16.3
2017-05-24T04:26:53.471Z,16.3
2017-05-24T04:27:56.315Z,16.3
2017-05-24T04:28:59.164Z,16.3
2017-05-24T04:30:02.128Z,16.3
2017-05-24T04:31:04.471Z,16.3
2017-05-24T04:32:07.314Z,16.2
2017-05-24T04:33:10.028Z,16.3
2017-05-24T04:34:12.883Z,16.3
2017-05-24T04:35:15.844Z,16.3
2017-05-24T04:36:18.187Z,16.3
2017-05-24T04:37:20.900Z,16.3
2017-05-24T04:38:23.614Z,16.3
2017-05-24T04:39:26.630Z,16.2
2017-05-24T04:40:29.725Z,16.3
2017-05-24T04:41:31.800Z,16.3
2017-05-24T04:42:35.147Z,16.2
2017-05-24T04:43:37.859Z,16.2
2017-05-24T04:44:40.703Z,16.1
2017-05-24T04:45:43.225Z,16.2
2017-05-24T04:46:46.071Z,16.1
2017-05-24T04:47:48.784Z,16.1
2017-05-24T04:48:51.629Z,16
2017-05-24T04:50:57.189Z,15.9
2017-05-24T04:51:59.901Z,15.9
2017-05-24T04:53:02.613Z,15.9
2017-05-24T04:54:05.462Z,15.8
2017-05-24T04:56:10.835Z,15.8
2017-05-24T04:57:13.686Z,15.8
2017-05-24T04:58:16.528Z,15.7
2017-05-24T04:59:18.872Z,15.7
2017-05-24T05:00:21.713Z,15.8
2017-05-24T05:01:24.806Z,15.8
2017-05-24T05:03:30.057Z,16
2017-05-24T05:04:32.902Z,16
2017-05-24T05:06:38.274Z,15.9
2017-05-24T05:07:41.121Z,15.9
2017-05-24T05:08:43.976Z,15.8
2017-05-24T05:09:46.818Z,15.7
2017-05-24T05:10:49.165Z,15.7
2017-05-24T05:11:52.258Z,15.6
2017-05-24T05:12:54.471Z,15.6
2017-05-24T05:13:57.550Z,15.6
2017-05-24T05:15:00.262Z,15.6
2017-05-24T05:16:03.106Z,15.6
2017-05-24T05:17:06.204Z,15.6
2017-05-24T05:18:08.552Z,15.6
2017-05-24T05:19:11.402Z,15.6
2017-05-24T05:20:14.250Z,15.7
2017-05-24T05:21:16.601Z,15.6
2017-05-24T05:22:19.700Z,15.6
2017-05-24T05:23:22.413Z,15.6
2017-05-24T05:24:25.819Z,15.6
2017-05-24T05:25:27.657Z,15.7
2017-05-24T05:26:30.938Z,15.7
2017-05-24T05:27:33.269Z,15.6
2017-05-24T05:28:36.116Z,15.6
2017-05-24T05:29:38.968Z,15.6
2017-05-24T05:30:41.319Z,15.6
2017-05-24T05:31:44.036Z,15.6
2017-05-24T05:32:47.694Z,15.6
2017-05-24T05:33:49.538Z,15.6
2017-05-24T05:34:52.390Z,15.5
2017-05-24T05:35:55.236Z,15.5
2017-05-24T05:36:57.945Z,15.4
2017-05-24T05:38:00.908Z,15.4
2017-05-24T05:39:03.253Z,15.4
2017-05-24T05:40:06.107Z,15.3
2017-05-24T05:41:08.954Z,15.3
2017-05-24T05:42:11.666Z,15.3
2017-05-24T05:43:14.763Z,15.3
2017-05-24T05:44:17.106Z,15.4
2017-05-24T05:45:19.945Z,15.4
2017-05-24T05:46:22.659Z,15.4
2017-05-24T05:47:25.369Z,15.4
2017-05-24T05:48:28.474Z,15.4
2017-05-24T05:49:30.545Z,15.5
2017-05-24T05:50:33.392Z,15.5
2017-05-24T05:51:36.235Z,15.4
2017-05-24T05:52:39.085Z,15.4
2017-05-24T05:53:42.187Z,15.4
2017-05-24T05:54:44.533Z,15.4
2017-05-24T05:55:47.382Z,15.4
2017-05-24T05:56:50.231Z,15.4
2017-05-24T05:57:52.443Z,15.5
2017-05-24T05:58:55.451Z,15.5
2017-05-24T05:59:58.300Z,15.6
2017-05-24T06:01:01.147Z,15.5
2017-05-24T06:02:03.990Z,15.5
2017-05-24T06:03:06.338Z,15.5
2017-05-24T06:04:09.441Z,15.5
2017-05-24T06:05:11.783Z,15.4
2017-05-24T06:06:14.632Z,15.5
2017-05-24T06:07:17.483Z,15.5
2017-05-24T06:08:20.191Z,15.6
2017-05-24T06:09:23.858Z,15.5
2017-05-24T06:10:25.696Z,15.5
2017-05-24T06:11:28.406Z,15.5
2017-05-24T06:12:31.259Z,15.6
2017-05-24T06:13:34.104Z,15.5
2017-05-24T06:14:37.199Z,15.5
2017-05-24T06:15:39.539Z,15.5
2017-05-24T06:16:42.114Z,15.3
2017-05-24T06:17:44.958Z,15.3
2017-05-24T06:19:50.834Z,15.3
2017-05-24T06:20:53.179Z,15.3
2017-05-24T06:21:56.022Z,15.3
2017-05-24T06:22:58.864Z,15.3
2017-05-24T06:24:01.712Z,15.3
2017-05-24T06:25:04.307Z,15.4
2017-05-24T06:26:07.015Z,15.4
2017-05-24T06:27:09.858Z,15.4
2017-05-24T06:28:12.774Z,15.4
2017-05-24T06:29:15.119Z,15.4
2017-05-24T06:30:18.217Z,15.4
2017-05-24T06:31:20.931Z,15.3
2017-05-24T06:32:23.782Z,15.3
2017-05-24T06:33:26.123Z,15.3
2017-05-24T06:34:28.840Z,15.3
2017-05-24T06:35:31.806Z,15.3
2017-05-24T06:36:34.520Z,15.3
2017-05-24T06:37:37.375Z,15.4
2017-05-24T06:38:40.222Z,15.5
2017-05-24T06:39:42.569Z,15.5
2017-05-24T06:40:45.668Z,15.5
2017-05-24T06:42:51.217Z,15.5
2017-05-24T06:43:53.928Z,15.5
2017-05-24T06:44:56.772Z,15.3
2017-05-24T06:45:59.732Z,15.3
2017-05-24T06:47:01.947Z,15.3
2017-05-24T06:48:04.794Z,15.3
2017-05-24T06:49:07.511Z,15.3
2017-05-24T06:50:10.354Z,15.3
2017-05-24T06:51:13.449Z,15.3
2017-05-24T06:52:15.654Z,15.2
2017-05-24T06:53:18.507Z,15.2
2017-05-24T06:54:21.356Z,15.3
2017-05-24T06:55:24.067Z,15.2
2017-05-24T06:56:27.029Z,15.3
2017-05-24T06:57:29.741Z,15.3
2017-05-24T06:58:32.455Z,15.3
2017-05-24T06:59:35.302Z,15.3
2017-05-24T07:00:38.157Z,15.2
2017-05-24T07:01:40.758Z,15.2
2017-05-24T07:03:45.878Z,15.3
2017-05-24T07:04:48.649Z,15.3
2017-05-24T07:05:51.907Z,15.4
2017-05-24T07:06:54.365Z,15.5
2017-05-24T07:07:57.074Z,15.5
2017-05-24T07:08:59.920Z,15.5
2017-05-24T07:10:02.632Z,15.5
2017-05-24T07:11:05.346Z,15.5
2017-05-24T07:12:08.316Z,15.5
2017-05-24T07:13:11.166Z,15.5
2017-05-24T07:14:14.013Z,15.6
2017-05-24T07:15:16.353Z,15.6
2017-05-24T07:16:19.195Z,15.5
2017-05-24T07:18:25.070Z,15.6
2017-05-24T07:19:27.914Z,15.5
2017-05-24T07:20:30.256Z,15.5
2017-05-24T07:21:33.098Z,15.5
2017-05-24T07:22:35.812Z,15.5
2017-05-24T07:23:38.912Z,15.5
2017-05-24T07:24:41.633Z,15.5
2017-05-24T07:25:44.477Z,15.5
2017-05-24T07:27:49.466Z,15.6
2017-05-24T07:28:53.069Z,15.6
2017-05-24T07:29:55.416Z,15.6
2017-05-24T07:30:58.138Z,15.6
2017-05-24T07:32:00.986Z,15.6
2017-05-24T07:33:03.837Z,15.6
2017-05-24T07:34:06.935Z,15.6
2017-05-24T07:35:09.278Z,15.6
2017-05-24T07:36:11.857Z,15.6
2017-05-24T07:37:15.205Z,15.6
2017-05-24T07:38:17.549Z,15.7
2017-05-24T07:39:20.698Z,15.7
2017-05-24T07:40:23.549Z,15.7
2017-05-24T07:41:25.893Z,15.8
2017-05-24T07:42:28.610Z,15.8
2017-05-24T07:43:31.461Z,15.7
2017-05-24T07:44:34.424Z,15.6
2017-05-24T07:45:37.275Z,15.7
2017-05-24T07:46:40.125Z,15.7
2017-05-24T07:47:42.974Z,15.7
2017-05-24T07:48:45.824Z,15.8
2017-05-24T07:49:48.784Z,15.8
2017-05-24T07:50:51.126Z,15.7
2017-05-24T07:51:53.971Z,15.7
2017-05-24T07:52:56.821Z,15.7
2017-05-24T07:54:00.226Z,15.7
2017-05-24T07:55:02.682Z,15.8
2017-05-24T07:56:05.394Z,15.7
2017-05-24T07:57:08.111Z,15.7
2017-05-24T07:58:10.821Z,15.8
2017-05-24T07:59:13.730Z,15.8
2017-05-24T08:00:16.830Z,15.8
2017-05-24T08:01:19.187Z,15.8
2017-05-24T08:02:21.904Z,15.6
2017-05-24T08:03:24.750Z,15.6
2017-05-24T08:04:27.597Z,15.6
2017-05-24T08:05:30.691Z,15.5
2017-05-24T08:06:32.900Z,15.6
2017-05-24T08:07:35.615Z,15.6
2017-05-24T08:08:38.465Z,15.5
2017-05-24T08:09:41.317Z,15.5
2017-05-24T08:10:44.468Z,15.6
2017-05-24T08:11:46.811Z,15.6
2017-05-24T08:12:49.666Z,15.7
2017-05-24T08:13:52.511Z,15.8
2017-05-24T08:14:55.228Z,15.8
2017-05-24T08:15:58.556Z,15.9
2017-05-24T08:17:01.461Z,15.9
2017-05-24T08:18:03.530Z,15.8
2017-05-24T08:19:06.432Z,15.9
2017-05-24T08:20:09.279Z,15.9
2017-05-24T08:21:12.381Z,15.9
2017-05-24T08:22:15.234Z,15.9
2017-05-24T08:23:17.581Z,16
2017-05-24T08:24:20.428Z,16
2017-05-24T08:25:23.273Z,16
2017-05-24T08:26:26.367Z,16
2017-05-24T08:27:29.079Z,16
2017-05-24T08:28:31.794Z,16
2017-05-24T08:29:34.507Z,15.9
2017-05-24T08:30:37.356Z,15.9
2017-05-24T08:31:40.188Z,15.9
2017-05-24T08:32:43.033Z,15.8
2017-05-24T08:33:45.876Z,15.8
2017-05-24T08:35:51.369Z,15.8
2017-05-24T08:36:54.382Z,15.8
2017-05-24T08:37:57.016Z,15.8
2017-05-24T08:38:59.863Z,15.8
2017-05-24T08:40:02.629Z,15.8
2017-05-24T08:41:05.471Z,15.8
2017-05-24T08:42:08.354Z,15.8
2017-05-24T08:44:13.474Z,15.8
2017-05-24T08:45:16.694Z,15.9
2017-05-24T08:46:19.543Z,15.9
2017-05-24T08:47:22.421Z,16
2017-05-24T08:48:25.267Z,15.9
2017-05-24T08:49:27.608Z,15.9
2017-05-24T08:50:30.455Z,15.8
2017-05-24T08:51:33.298Z,15.8
2017-05-24T08:52:36.270Z,15.8
2017-05-24T08:53:39.123Z,15.8
2017-05-24T08:54:42.537Z,15.9
2017-05-24T08:55:44.879Z,15.9
2017-05-24T08:56:47.285Z,15.9
2017-05-24T08:57:50.382Z,16
2017-05-24T08:58:53.095Z,16
2017-05-24T08:59:55.950Z,16
2017-05-24T09:00:58.671Z,16
2017-05-24T09:02:01.513Z,16
2017-05-24T09:03:04.619Z,16
2017-05-24T09:04:06.692Z,16.1
2017-05-24T09:05:10.043Z,16.1
2017-05-24T09:06:12.890Z,16.1
2017-05-24T09:07:15.733Z,16.1
2017-05-24T09:08:18.337Z,16.2
2017-05-24T09:09:21.060Z,16.2
2017-05-24T09:10:23.773Z,16.1
2017-05-24T09:11:26.618Z,16.2
2017-05-24T09:12:29.331Z,16.2
2017-05-24T09:13:32.483Z,16.2
2017-05-24T09:14:35.335Z,16.2
2017-05-24T09:15:38.045Z,16.2
2017-05-24T09:16:40.894Z,16.2
2017-05-24T09:17:43.740Z,16.3
2017-05-24T09:18:46.839Z,16.3
2017-05-24T09:19:49.186Z,16.3
2017-05-24T09:20:52.033Z,16.3
2017-05-24T09:21:54.879Z,16.3
2017-05-24T09:22:57.723Z,16.3
2017-05-24T09:24:00.875Z,16.3
2017-05-24T09:26:06.134Z,16.3
2017-05-24T09:27:08.845Z,16.3
2017-05-24T09:28:12.063Z,16.3
2017-05-24T09:29:15.026Z,16.3
2017-05-24T09:30:17.871Z,16.4
2017-05-24T09:31:20.723Z,16.4
2017-05-24T09:32:23.571Z,16.4
2017-05-24T09:33:26.414Z,16.4
2017-05-24T09:34:29.380Z,16.5
2017-05-24T09:35:31.959Z,16.5
2017-05-24T09:36:34.529Z,16.5
2017-05-24T09:37:37.753Z,16.5
2017-05-24T09:39:43.271Z,16.5
2017-05-24T09:40:46.128Z,16.4
2017-05-24T09:41:48.975Z,16.4
2017-05-24T09:42:51.823Z,16.4
2017-05-24T09:43:54.542Z,16.5
2017-05-24T09:44:57.641Z,16.5
2017-05-24T09:46:00.353Z,16.4
2017-05-24T09:47:03.063Z,16.4
2017-05-24T09:48:05.906Z,16.4
2017-05-24T09:49:08.624Z,16.4
2017-05-24T09:50:11.720Z,16.4
2017-05-24T09:51:14.570Z,16.4
2017-05-24T09:52:17.413Z,16.5
2017-05-24T09:53:20.265Z,16.5
2017-05-24T09:54:23.120Z,16.5
2017-05-24T09:55:26.220Z,16.5
2017-05-24T09:56:28.562Z,16.5
2017-05-24T09:57:31.406Z,16.6
2017-05-24T09:58:34.262Z,16.6
2017-05-24T09:59:36.840Z,16.6
2017-05-24T10:00:40.441Z,16.6
2017-05-24T10:01:43.158Z,16.6
2017-05-24T10:02:46.016Z,16.5
2017-05-24T10:03:48.868Z,16.5
2017-05-24T10:04:51.577Z,16.5
2017-05-24T10:05:54.676Z,16.5
2017-05-24T10:06:57.382Z,16.5
2017-05-24T10:07:59.958Z,16.5
2017-05-24T10:09:02.671Z,16.5
2017-05-24T10:10:06.022Z,16.5
2017-05-24T10:11:09.036Z,16.5
2017-05-24T10:12:11.378Z,16.5
2017-05-24T10:13:14.224Z,16.5
2017-05-24T10:14:17.064Z,16.5
2017-05-24T10:15:20.279Z,16.5
2017-05-24T10:16:22.877Z,16.5
2017-05-24T10:17:25.728Z,16.5
2017-05-24T10:18:28.575Z,16.5
2017-05-24T10:19:31.425Z,16.5
2017-05-24T10:20:34.132Z,16.5
2017-05-24T10:21:37.094Z,16.5
2017-05-24T10:22:39.933Z,16.5
2017-05-24T10:23:42.778Z,16.5
2017-05-24T10:24:45.624Z,16.5
2017-05-24T10:25:48.331Z,16.5
2017-05-24T10:26:51.431Z,16.5
2017-05-24T10:27:54.286Z,16.4
2017-05-24T10:28:56.633Z,16.4
2017-05-24T10:29:59.487Z,16.4
2017-05-24T10:31:02.336Z,16.4
2017-05-24T10:32:05.434Z,16.5
2017-05-24T10:33:08.013Z,16.5
2017-05-24T10:34:11.100Z,16.5
2017-05-24T10:35:13.944Z,16.5
2017-05-24T10:36:16.656Z,16.6
2017-05-24T10:37:19.749Z,16.6
2017-05-24T10:38:21.962Z,16.6
2017-05-24T10:39:25.175Z,16.6
2017-05-24T10:40:28.588Z,16.6
2017-05-24T10:41:30.933Z,16.6
2017-05-24T10:42:34.077Z,16.6
2017-05-24T10:43:36.418Z,16.6
2017-05-24T10:44:39.260Z,16.6
2017-05-24T10:45:42.104Z,16.6
2017-05-24T10:46:44.949Z,16.6
2017-05-24T10:47:48.048Z,16.6
2017-05-24T10:48:50.393Z,16.6
2017-05-24T10:49:53.105Z,16.6
2017-05-24T10:50:56.452Z,16.6
2017-05-24T10:51:59.294Z,16.6
2017-05-24T10:53:01.817Z,16.6
2017-05-24T10:54:04.661Z,16.6
2017-05-24T10:55:07.507Z,16.6
2017-05-24T10:56:10.351Z,16.7
2017-05-24T10:57:13.195Z,16.7
2017-05-24T10:58:16.292Z,16.7
2017-05-24T10:59:18.499Z,16.7
2017-05-24T11:00:21.845Z,16.7
2017-05-24T11:01:24.686Z,16.6
2017-05-24T11:02:27.412Z,16.6
2017-05-24T11:03:30.512Z,16.5
2017-05-24T11:04:32.874Z,16.5
2017-05-24T11:05:35.587Z,16.6
2017-05-24T11:06:38.996Z,16.6
2017-05-24T11:07:41.202Z,16.6
2017-05-24T11:08:44.296Z,16.6
2017-05-24T11:09:47.141Z,16.6
2017-05-24T11:10:49.986Z,16.6
2017-05-24T11:11:52.833Z,16.6
2017-05-24T11:12:55.682Z,16.6
2017-05-24T11:13:58.645Z,16.6
2017-05-24T11:15:00.984Z,16.6
2017-05-24T11:16:03.835Z,16.6
2017-05-24T11:17:06.680Z,16.6
2017-05-24T11:18:09.527Z,16.6
2017-05-24T11:19:12.624Z,16.6
2017-05-24T11:20:14.964Z,16.7
2017-05-24T11:21:17.814Z,16.7
2017-05-24T11:22:20.661Z,16.7
2017-05-24T11:23:23.508Z,16.7
2017-05-24T11:24:26.340Z,16.7
2017-05-24T11:25:29.191Z,16.8
2017-05-24T11:26:31.902Z,16.8
2017-05-24T11:27:34.749Z,16.8
2017-05-24T11:28:37.965Z,16.8
2017-05-24T11:29:40.923Z,16.8
2017-05-24T11:30:43.003Z,16.7
2017-05-24T11:31:46.359Z,16.7
2017-05-24T11:32:49.207Z,16.7
2017-05-24T11:33:52.052Z,16.7
2017-05-24T11:34:54.676Z,16.8
2017-05-24T11:35:57.523Z,16.8
2017-05-24T11:37:00.230Z,16.8
2017-05-24T11:38:02.978Z,16.8
2017-05-24T11:39:05.697Z,16.8
2017-05-24T11:40:08.661Z,16.8
2017-05-24T11:41:11.509Z,16.8
2017-05-24T11:42:14.358Z,16.8
2017-05-24T11:43:17.205Z,16.8
2017-05-24T11:44:19.925Z,16.8
2017-05-24T11:46:25.936Z,16.8
2017-05-24T11:47:28.842Z,16.8
2017-05-24T11:48:31.184Z,16.8
2017-05-24T11:49:34.024Z,16.8
2017-05-24T11:50:36.872Z,16.8
2017-05-24T11:51:39.840Z,16.8
2017-05-24T11:52:42.687Z,16.8
2017-05-24T11:53:45.537Z,16.8
2017-05-24T11:54:48.251Z,16.8
2017-05-24T11:55:51.095Z,16.8
2017-05-24T11:56:54.190Z,16.8
2017-05-24T11:57:56.533Z,16.8
2017-05-24T11:58:59.376Z,16.8
2017-05-24T12:00:01.958Z,16.8
2017-05-24T12:01:05.313Z,16.8
2017-05-24T12:02:08.141Z,16.8
2017-05-24T12:03:10.857Z,16.8
2017-05-24T12:04:13.764Z,16.8
2017-05-24T12:05:16.610Z,16.9
2017-05-24T12:06:19.459Z,16.9
2017-05-24T12:07:22.057Z,16.9
2017-05-24T12:08:24.903Z,16.9
2017-05-24T12:09:27.755Z,16.9
2017-05-24T12:10:30.602Z,16.9
2017-05-24T12:11:33.449Z,16.8
2017-05-24T12:12:36.412Z,16.8
2017-05-24T12:13:38.986Z,16.8
2017-05-24T12:14:41.832Z,16.8
2017-05-24T12:15:44.683Z,16.8
2017-05-24T12:16:47.535Z,16.8
2017-05-24T12:17:50.643Z,16.8
2017-05-24T12:18:52.987Z,16.8
2017-05-24T12:19:55.837Z,16.9
2017-05-24T12:20:59.152Z,16.9
2017-05-24T12:22:01.372Z,16.9
2017-05-24T12:23:04.473Z,17
2017-05-24T12:24:07.181Z,17
2017-05-24T12:25:10.026Z,17
2017-05-24T12:26:12.735Z,17
2017-05-24T12:27:15.587Z,17
2017-05-24T12:28:18.749Z,17
2017-05-24T12:29:21.463Z,17
2017-05-24T12:30:24.175Z,17.1
2017-05-24T12:31:26.886Z,17.1
2017-05-24T12:32:29.467Z,17.1
2017-05-24T12:33:33.066Z,17.1
2017-05-24T12:34:35.417Z,17.1
2017-05-24T12:35:38.264Z,17
2017-05-24T12:36:41.107Z,17
2017-05-24T12:37:43.824Z,17
2017-05-24T12:38:46.794Z,17
2017-05-24T12:39:49.644Z,17
2017-05-24T12:41:55.270Z,17
2017-05-24T12:42:58.116Z,17
2017-05-24T12:44:01.215Z,17
2017-05-24T12:45:03.292Z,17
2017-05-24T12:46:06.518Z,17
2017-05-24T12:47:09.658Z,17
2017-05-24T12:48:11.873Z,17
2017-05-24T12:49:14.836Z,17
2017-05-24T12:50:17.410Z,17.1
2017-05-24T12:51:20.755Z,17.1
2017-05-24T12:52:23.610Z,17.1
2017-05-24T12:53:26.324Z,17.1
2017-05-24T12:54:29.421Z,17.1
2017-05-24T12:55:31.763Z,17.1
2017-05-24T12:56:34.612Z,17.1
2017-05-24T12:57:37.462Z,17.1
2017-05-24T12:59:43.528Z,17.1
2017-05-24T13:00:45.733Z,17.1
2017-05-24T13:01:49.082Z,17.1
2017-05-24T13:02:51.932Z,17.1
2017-05-24T13:03:54.282Z,17.1
2017-05-24T13:04:57.932Z,17.1
2017-05-24T13:06:00.845Z,17.1
2017-05-24T13:07:03.188Z,17.2
2017-05-24T13:08:05.901Z,17.2
2017-05-24T13:09:08.484Z,17.2
2017-05-24T13:10:11.579Z,17.2
2017-05-24T13:11:14.288Z,17.1
2017-05-24T13:12:17.131Z,17.1
2017-05-24T13:13:19.717Z,17.1
2017-05-24T13:14:22.564Z,17.1
2017-05-24T13:15:26.089Z,17.1
2017-05-24T13:16:28.483Z,17.1
2017-05-24T13:17:31.326Z,17.1
2017-05-24T13:18:34.175Z,17.1
2017-05-24T13:19:36.887Z,17.1
2017-05-24T13:20:39.984Z,17.1
2017-05-24T13:21:42.828Z,17.1
2017-05-24T13:22:45.542Z,17.1
2017-05-24T13:23:48.392Z,17.1
2017-05-24T13:24:50.971Z,17.1
2017-05-24T13:25:54.123Z,17.1
2017-05-24T13:26:56.966Z,17.2
2017-05-24T13:27:59.689Z,17.1
2017-05-24T13:29:02.403Z,17.2
2017-05-24T13:30:05.157Z,17.2
2017-05-24T13:31:07.982Z,17.2
2017-05-24T13:32:10.697Z,17.1
2017-05-24T13:33:13.546Z,17.1
2017-05-24T13:34:16.396Z,17.1
2017-05-24T13:35:19.244Z,17.1
2017-05-24T13:36:22.392Z,17.1
2017-05-24T13:37:25.241Z,17.1
2017-05-24T13:38:27.816Z,17.1
2017-05-24T13:39:30.720Z,17.1
2017-05-24T13:40:33.570Z,17.2
2017-05-24T13:41:36.665Z,17.2
2017-05-24T13:42:39.012Z,17.2
2017-05-24T13:43:41.727Z,17.2
2017-05-24T13:44:44.574Z,17.1
2017-05-24T13:45:47.292Z,17.1
2017-05-24T13:46:50.756Z,17.2
2017-05-24T13:47:53.476Z,17.1
2017-05-24T13:48:56.312Z,17.1
2017-05-24T13:49:59.165Z,17.2
2017-05-24T13:51:01.743Z,17.2
2017-05-24T13:52:04.859Z,17.2
2017-05-24T13:53:07.195Z,17.2
2017-05-24T13:54:10.047Z,17.2
2017-05-24T13:55:12.899Z,17.2
2017-05-24T13:56:15.477Z,17.3
2017-05-24T13:57:18.949Z,17.3
2017-05-24T13:58:21.159Z,17.3
2017-05-24T13:59:24.512Z,17.3
2017-05-24T14:00:27.358Z,17.3
2017-05-24T14:01:30.203Z,17.3
2017-05-24T14:02:32.812Z,17.3
2017-05-24T14:03:35.661Z,17.3
2017-05-24T14:04:38.506Z,17.3
2017-05-24T14:05:41.909Z,17.3
2017-05-24T14:06:44.258Z,17.3
2017-05-24T14:07:47.217Z,17.3
2017-05-24T14:08:49.290Z,17.3
2017-05-24T14:09:52.383Z,17.3
2017-05-24T14:10:55.227Z,17.3
2017-05-24T14:11:58.073Z,17.3
2017-05-24T14:13:01.228Z,17.3
2017-05-24T14:14:04.077Z,17.3
2017-05-24T14:15:06.426Z,17.3
2017-05-24T14:16:09.271Z,17.3
2017-05-24T14:17:11.978Z,17.3
2017-05-24T14:18:15.445Z,17.3
2017-05-24T14:19:17.787Z,17.3
2017-05-24T14:20:21.002Z,17.3
2017-05-24T14:21:23.712Z,17.3
2017-05-24T14:22:26.557Z,17.3
2017-05-24T14:23:29.580Z,17.3
2017-05-24T14:24:31.923Z,17.4
2017-05-24T14:25:34.629Z,17.4
2017-05-24T14:26:37.847Z,17.4
2017-05-24T14:27:40.696Z,17.4
2017-05-24T14:28:43.662Z,17.4